Portada
METAR-TAF:

METAR-TAF

Aeroports :

Aeroport Internacional de Mitiga

Trípoli, Líbia

latitud: 32-54N, longitud: 13-17E, altitud: 11 m

METAR: manca

Hora: 14:28 (12:28 UTC)

Pronòstic

L'informe es va fer fa 1 hora i 28 minuts, a les 11:00 UTC
Pronòstic vàlid del 14 a les 12 UTC al 15 a les 12 UTC
Vent 15 kt del Oest
Visibilitat: 8000 m
Escasses núvols a una alçada de 2500 ft
Núvols disperses a una alçada de 8000 ft
Evolucionant progressivament
l' 14 a les 18 UTC al 14 a les 20 UTC
Vent 2 kt amb direcció variable
Visibilitat: 8000 m
Evolucionant progressivament
l' 15 a les 02 UTC al 15 a les 04 UTC
Vent 15 kt del Sud

TAF: HLLM 141100Z 1412/1512 27015KT 8000 FEW025 SCT080 BECMG 1418/1420 VRB02KT 8000 NSC BECMG 1502/1504 17015KT

Observacions i pronòstics meteorològics de més de 4000 aeroports (METAR i TAF).

Les estacions disponibles són els punts grocs i vermells al mapa.

Posi el ratolí al punt desitjat per veure el nom de l'estació.

Feu clic per veure les observacions i els pronòstics meteorològics.

Per canviar el mapa: feu clic els botons verds amb una creu de color negre per apropar; al botó verd amb un guió per allunyar la imatge; o en les fletxes verdes per a mapes adjacents.


METAR-TAF: